createdAt,value
2017-10-13T00:00:41.657Z,3.70
2017-10-13T00:03:09.501Z,4.10
2017-10-13T00:05:37.389Z,3.90
2017-10-13T00:08:05.207Z,4.13
2017-10-13T00:10:35.039Z,4.77
2017-10-13T00:13:03.926Z,4.40
2017-10-13T00:15:31.739Z,4.27
2017-10-13T00:17:59.814Z,5.60
2017-10-13T00:20:27.928Z,5.63
2017-10-13T00:22:55.953Z,5.27
2017-10-13T00:25:23.971Z,5.73
2017-10-13T00:27:51.830Z,5.90
2017-10-13T00:30:19.667Z,5.60
2017-10-13T00:32:47.531Z,5.93
2017-10-13T00:35:15.360Z,6.27
2017-10-13T00:37:43.260Z,5.60
2017-10-13T00:40:11.154Z,6.07
2017-10-13T00:42:39.852Z,5.00
2017-10-13T00:45:07.844Z,5.20
2017-10-13T00:47:35.680Z,4.30
2017-10-13T00:50:04.481Z,4.60
2017-10-13T00:52:33.171Z,4.63
2017-10-13T00:55:01.255Z,4.50
2017-10-13T00:57:29.276Z,5.27
2017-10-13T00:59:57.919Z,4.30
2017-10-13T01:02:25.844Z,3.43
2017-10-13T01:04:54.477Z,3.90
2017-10-13T01:07:22.355Z,3.60
2017-10-13T01:09:50.479Z,3.60
2017-10-13T01:12:18.411Z,3.83
2017-10-13T01:14:47.113Z,3.63
2017-10-13T01:17:15.741Z,2.90
2017-10-13T01:19:43.587Z,3.87
2017-10-13T01:22:11.575Z,3.27
2017-10-13T01:24:39.534Z,3.30
2017-10-13T01:27:07.543Z,3.10
2017-10-13T01:29:35.484Z,2.80
2017-10-13T01:32:03.444Z,3.90
2017-10-13T01:34:31.346Z,3.27
2017-10-13T01:36:59.291Z,3.50
2017-10-13T01:39:27.247Z,2.90
2017-10-13T01:41:55.168Z,2.47
2017-10-13T01:44:23.868Z,2.43
2017-10-13T01:46:53.592Z,2.13
2017-10-13T01:49:21.540Z,1.97
2017-10-13T01:51:50.219Z,2.77
2017-10-13T01:54:18.265Z,2.00
2017-10-13T01:56:46.233Z,2.50
2017-10-13T01:59:14.169Z,2.20
2017-10-13T02:01:42.060Z,2.63
2017-10-13T02:04:09.967Z,1.93
2017-10-13T02:06:38.559Z,2.03
2017-10-13T02:09:07.166Z,2.87
2017-10-13T02:11:35.043Z,2.73
2017-10-13T02:14:02.900Z,2.33
2017-10-13T02:16:30.748Z,2.57
2017-10-13T02:18:58.679Z,1.73
2017-10-13T02:21:26.712Z,2.30
2017-10-13T02:23:54.607Z,2.80
2017-10-13T02:26:22.647Z,2.17
2017-10-13T02:28:51.391Z,1.90
2017-10-13T02:31:20.022Z,1.83
2017-10-13T02:33:47.899Z,1.83
2017-10-13T02:36:15.820Z,2.40
2017-10-13T02:38:43.657Z,2.50
2017-10-13T02:41:11.695Z,2.43
2017-10-13T02:43:39.690Z,2.07
2017-10-13T02:46:07.784Z,2.33
2017-10-13T02:48:36.535Z,2.47
2017-10-13T02:51:04.481Z,3.10
2017-10-13T02:53:32.320Z,2.40
2017-10-13T02:56:00.957Z,2.60
2017-10-13T02:58:28.813Z,1.97
2017-10-13T03:00:56.779Z,1.93
2017-10-13T03:03:24.670Z,2.17
2017-10-13T03:05:52.503Z,1.90
2017-10-13T03:08:20.340Z,2.30
2017-10-13T03:10:48.196Z,2.30
2017-10-13T03:13:16.809Z,2.50
2017-10-13T03:15:44.616Z,2.20
2017-10-13T03:18:12.480Z,2.30
2017-10-13T03:20:40.354Z,2.40
2017-10-13T03:23:08.240Z,2.03
2017-10-13T03:25:37.003Z,2.07
2017-10-13T03:28:04.924Z,2.00
2017-10-13T03:30:33.613Z,2.03
2017-10-13T03:33:01.445Z,1.83
2017-10-13T03:35:30.131Z,2.10
2017-10-13T03:37:58.848Z,2.30
2017-10-13T03:40:26.725Z,2.40
2017-10-13T03:42:54.639Z,2.43
2017-10-13T03:45:22.529Z,2.70
2017-10-13T03:47:51.180Z,2.50
2017-10-13T03:50:19.034Z,1.70
2017-10-13T03:52:46.903Z,1.80
2017-10-13T03:55:14.834Z,1.90
2017-10-13T03:57:42.648Z,2.13
2017-10-13T04:00:10.577Z,2.27
2017-10-13T04:02:38.464Z,2.10
2017-10-13T04:05:06.547Z,2.30
2017-10-13T04:07:34.661Z,2.40
2017-10-13T04:10:02.584Z,1.90
2017-10-13T04:12:30.720Z,2.33
2017-10-13T04:14:58.588Z,2.07
2017-10-13T04:17:26.465Z,2.80
2017-10-13T04:19:54.284Z,2.20
2017-10-13T04:22:23.082Z,1.70
2017-10-13T04:24:50.969Z,3.03
2017-10-13T04:27:19.930Z,1.87
2017-10-13T04:29:48.509Z,2.20
2017-10-13T04:32:16.365Z,2.20
2017-10-13T04:34:44.254Z,1.93
2017-10-13T04:37:13.008Z,2.50
2017-10-13T04:39:40.975Z,2.03
2017-10-13T04:42:08.891Z,2.43
2017-10-13T04:44:36.746Z,1.70
2017-10-13T04:47:06.612Z,1.93
2017-10-13T04:49:34.428Z,1.93
2017-10-13T04:52:03.148Z,2.40
2017-10-13T04:54:30.965Z,2.00
2017-10-13T04:56:59.571Z,1.70
2017-10-13T04:59:27.500Z,2.60
2017-10-13T05:01:55.316Z,2.20
2017-10-13T05:04:23.172Z,2.03
2017-10-13T05:06:50.996Z,2.13
2017-10-13T05:09:18.833Z,1.87
2017-10-13T05:11:46.667Z,2.00
2017-10-13T05:14:14.511Z,2.73
2017-10-13T05:16:43.197Z,5.73
2017-10-13T05:19:11.787Z,4.83
2017-10-13T05:21:40.398Z,3.40
2017-10-13T05:24:08.238Z,2.47
2017-10-13T05:26:36.843Z,2.93
2017-10-13T05:29:04.959Z,2.20
2017-10-13T05:31:32.812Z,2.43
2017-10-13T05:34:01.083Z,2.23
2017-10-13T05:36:28.950Z,2.60
2017-10-13T05:38:57.008Z,3.10
2017-10-13T05:41:24.848Z,2.77
2017-10-13T05:43:53.633Z,2.57
2017-10-13T05:46:21.526Z,2.30
2017-10-13T05:48:49.396Z,2.50
2017-10-13T05:51:17.233Z,2.20
2017-10-13T05:53:46.149Z,2.00
2017-10-13T05:56:14.008Z,2.00
2017-10-13T05:58:41.937Z,3.10
2017-10-13T06:01:10.548Z,2.30
2017-10-13T06:03:38.532Z,2.30
2017-10-13T06:06:06.487Z,2.10
2017-10-13T06:08:34.560Z,2.10
2017-10-13T06:11:02.414Z,2.60
2017-10-13T06:13:30.399Z,3.00
2017-10-13T06:15:58.397Z,4.90
2017-10-13T06:18:26.333Z,4.87
2017-10-13T06:20:54.192Z,4.40
2017-10-13T06:23:22.654Z,3.53
2017-10-13T06:25:51.424Z,2.90
2017-10-13T06:28:19.309Z,3.90
2017-10-13T06:30:48.063Z,3.67
2017-10-13T06:33:16.184Z,2.80
2017-10-13T06:35:44.152Z,3.70
2017-10-13T06:38:12.210Z,3.07
2017-10-13T06:40:40.530Z,2.90
2017-10-13T06:43:08.528Z,2.63
2017-10-13T06:45:36.591Z,3.20
2017-10-13T06:48:04.510Z,3.17
2017-10-13T06:50:32.492Z,3.63
2017-10-13T06:53:00.425Z,2.97
2017-10-13T06:55:28.361Z,2.90
2017-10-13T06:57:56.246Z,3.07
2017-10-13T07:00:24.078Z,4.50
2017-10-13T07:02:51.981Z,3.43
2017-10-13T07:05:19.880Z,3.60
2017-10-13T07:07:48.471Z,3.40
2017-10-13T07:10:16.411Z,3.60
2017-10-13T07:12:44.453Z,4.20
2017-10-13T07:15:12.339Z,3.20
2017-10-13T07:17:40.253Z,4.23
2017-10-13T07:20:08.228Z,3.83
2017-10-13T07:22:36.228Z,3.90
2017-10-13T07:25:04.218Z,4.07
2017-10-13T07:27:32.191Z,3.50
2017-10-13T07:30:00.933Z,8.97
2017-10-13T07:32:28.755Z,8.37
2017-10-13T07:34:57.394Z,7.60
2017-10-13T07:37:25.587Z,5.10
2017-10-13T07:39:53.447Z,5.97
2017-10-13T07:42:21.308Z,5.57
2017-10-13T07:44:49.634Z,3.47
2017-10-13T07:47:17.564Z,3.67
2017-10-13T07:49:45.472Z,3.90
2017-10-13T07:52:13.333Z,4.10
2017-10-13T07:54:41.943Z,3.33
2017-10-13T07:57:09.784Z,3.63
2017-10-13T07:59:38.457Z,3.63
2017-10-13T08:02:07.053Z,4.37
2017-10-13T08:04:35.048Z,3.77
2017-10-13T08:07:02.859Z,7.00
2017-10-13T08:09:33.425Z,5.93
2017-10-13T08:12:01.562Z,6.80
2017-10-13T08:14:29.586Z,7.10
2017-10-13T08:16:57.396Z,7.47
2017-10-13T08:19:25.296Z,7.33
2017-10-13T08:21:53.471Z,9.90
2017-10-13T08:24:21.467Z,7.97
2017-10-13T08:26:49.402Z,8.00
2017-10-13T08:29:17.432Z,9.80
2017-10-13T08:31:45.385Z,7.23
2017-10-13T08:34:13.283Z,7.53
2017-10-13T08:36:42.008Z,9.87
2017-10-13T08:39:09.875Z,11.43
2017-10-13T08:41:37.744Z,8.23
2017-10-13T08:44:05.588Z,8.10
2017-10-13T08:46:33.519Z,8.83
2017-10-13T08:49:01.447Z,7.43
2017-10-13T08:51:29.288Z,10.27
2017-10-13T08:53:57.923Z,9.20
2017-10-13T08:56:25.819Z,9.20
2017-10-13T08:58:53.771Z,7.40
2017-10-13T09:01:21.695Z,9.50
2017-10-13T09:03:49.656Z,10.03
2017-10-13T09:06:17.664Z,7.27
2017-10-13T09:08:45.572Z,6.73
2017-10-13T09:11:14.303Z,5.13
2017-10-13T09:13:42.204Z,5.60
2017-10-13T09:16:10.419Z,5.40
2017-10-13T09:18:38.310Z,6.33
2017-10-13T09:21:06.286Z,4.83
2017-10-13T09:23:34.300Z,6.10
2017-10-13T09:26:03.026Z,5.60
2017-10-13T09:28:30.904Z,4.57
2017-10-13T09:30:58.902Z,4.70
2017-10-13T09:33:27.696Z,4.20
2017-10-13T09:35:56.458Z,4.73
2017-10-13T09:38:24.384Z,5.00
2017-10-13T09:40:52.305Z,4.40
2017-10-13T09:43:20.158Z,4.20
2017-10-13T09:45:48.116Z,4.13
2017-10-13T09:48:16.115Z,5.73
2017-10-13T09:50:44.187Z,3.70
2017-10-13T09:53:13.628Z,4.80
2017-10-13T09:55:41.947Z,5.80
2017-10-13T09:58:09.806Z,4.60
2017-10-13T10:00:38.390Z,4.57
2017-10-13T10:03:06.536Z,5.07
2017-10-13T10:05:34.530Z,2.67
2017-10-13T10:08:02.766Z,3.57
2017-10-13T10:10:30.889Z,5.83
2017-10-13T10:12:59.233Z,5.07
2017-10-13T10:15:27.316Z,3.20
2017-10-13T10:17:55.157Z,5.37
2017-10-13T10:20:23.035Z,4.40
2017-10-13T10:22:51.258Z,3.13
2017-10-13T10:25:19.227Z,3.40
2017-10-13T10:27:47.135Z,5.43
2017-10-13T10:30:15.040Z,3.10
2017-10-13T10:32:43.142Z,4.63
2017-10-13T10:35:11.131Z,3.43
2017-10-13T10:37:39.856Z,2.90
2017-10-13T10:40:08.059Z,3.07
2017-10-13T10:42:35.998Z,3.50
2017-10-13T10:45:03.847Z,3.78
2017-10-13T10:47:31.780Z,2.93
2017-10-13T10:49:59.725Z,3.03
2017-10-13T10:52:27.582Z,2.30
2017-10-13T10:54:55.951Z,2.60
2017-10-13T10:57:23.912Z,2.70
2017-10-13T10:59:51.902Z,4.60
2017-10-13T11:02:19.764Z,2.93
2017-10-13T11:04:47.783Z,2.77
2017-10-13T11:07:16.654Z,2.60
2017-10-13T11:09:44.568Z,3.50
2017-10-13T11:12:12.790Z,3.70
2017-10-13T11:14:40.740Z,2.80
2017-10-13T11:17:08.593Z,2.90
2017-10-13T11:19:36.455Z,2.57
2017-10-13T11:22:04.374Z,2.93
2017-10-13T11:24:32.342Z,2.77
2017-10-13T11:27:02.950Z,2.73
2017-10-13T11:29:31.106Z,2.60
2017-10-13T11:31:59.586Z,1.70
2017-10-13T11:34:27.841Z,2.77
2017-10-13T11:36:55.773Z,2.00
2017-10-13T11:39:24.591Z,2.20
2017-10-13T11:41:52.514Z,3.13
2017-10-13T11:44:21.385Z,3.80
2017-10-13T11:46:49.507Z,6.13
2017-10-13T11:49:17.473Z,4.73
2017-10-13T11:51:46.109Z,5.20
2017-10-13T11:54:13.964Z,6.77
2017-10-13T11:56:41.854Z,3.07
2017-10-13T11:59:09.844Z,4.57
2017-10-13T12:01:37.817Z,5.80
2017-10-13T12:04:06.512Z,3.83
2017-10-13T12:06:35.180Z,3.37
2017-10-13T12:09:03.046Z,2.70
2017-10-13T12:11:30.900Z,5.37
2017-10-13T12:13:59.021Z,2.70
2017-10-13T12:16:27.750Z,3.33
2017-10-13T12:18:55.584Z,6.33
2017-10-13T12:21:23.439Z,5.40
2017-10-13T12:23:51.266Z,5.07
2017-10-13T12:26:19.075Z,2.77
2017-10-13T12:28:47.004Z,3.47
2017-10-13T12:31:14.933Z,2.53
2017-10-13T12:33:42.875Z,2.60
2017-10-13T12:36:11.507Z,2.80
2017-10-13T12:38:39.440Z,2.57
2017-10-13T12:41:07.821Z,3.20
2017-10-13T12:43:36.487Z,2.50
2017-10-13T12:46:04.300Z,2.90
2017-10-13T12:48:32.130Z,2.47
2017-10-13T12:50:59.935Z,2.90
2017-10-13T12:53:27.793Z,3.10
2017-10-13T12:55:55.747Z,2.30
2017-10-13T12:58:23.658Z,2.40
2017-10-13T13:00:52.273Z,1.97
2017-10-13T13:03:21.123Z,2.43
2017-10-13T13:05:49.765Z,2.60
2017-10-13T13:08:17.644Z,2.30
2017-10-13T13:10:45.578Z,2.77
2017-10-13T13:13:13.603Z,2.27
2017-10-13T13:15:41.495Z,2.80
2017-10-13T13:18:10.266Z,2.20
2017-10-13T13:20:39.028Z,2.10
2017-10-13T13:23:07.132Z,2.23
2017-10-13T13:25:35.745Z,2.40
2017-10-13T13:28:03.638Z,3.03
2017-10-13T13:30:31.564Z,3.07
2017-10-13T13:33:00.169Z,2.73
2017-10-13T13:35:28.011Z,2.30
2017-10-13T13:37:57.495Z,2.70
2017-10-13T13:40:25.315Z,2.17
2017-10-13T13:42:53.156Z,3.10
2017-10-13T13:45:21.041Z,3.33
2017-10-13T13:47:49.759Z,3.00
2017-10-13T13:50:17.661Z,3.33
2017-10-13T13:52:46.285Z,3.03
2017-10-13T13:55:14.148Z,2.77
2017-10-13T13:57:42.331Z,4.20
2017-10-13T14:00:10.197Z,3.17
2017-10-13T14:02:38.046Z,3.53
2017-10-13T14:05:05.958Z,2.63
2017-10-13T14:07:33.902Z,3.03
2017-10-13T14:10:01.827Z,3.13
2017-10-13T14:12:30.546Z,3.33
2017-10-13T14:15:07.358Z,3.00
2017-10-13T14:17:35.773Z,3.07
2017-10-13T14:20:04.575Z,3.20
2017-10-13T14:22:32.498Z,2.87
2017-10-13T14:25:00.619Z,3.23
2017-10-13T14:27:28.536Z,3.87
2017-10-13T14:29:56.428Z,3.23
2017-10-13T14:32:25.266Z,3.10
2017-10-13T14:34:54.216Z,3.90
2017-10-13T14:37:22.658Z,3.40
2017-10-13T14:39:50.590Z,3.97
2017-10-13T14:42:18.399Z,3.10
2017-10-13T14:44:46.314Z,3.60
2017-10-13T14:47:14.195Z,3.30
2017-10-13T14:49:42.185Z,3.47
2017-10-13T14:52:10.036Z,3.37
2017-10-13T14:54:38.119Z,3.83
2017-10-13T14:57:05.938Z,3.37
2017-10-13T14:59:34.639Z,3.23
2017-10-13T15:02:03.082Z,4.17
2017-10-13T15:04:30.904Z,4.00
2017-10-13T15:06:58.690Z,3.23
2017-10-13T15:09:26.636Z,3.50
2017-10-13T15:11:54.519Z,2.90
2017-10-13T15:14:22.465Z,3.50
2017-10-13T15:16:50.354Z,2.70
2017-10-13T15:19:18.163Z,3.20
2017-10-13T15:21:46.779Z,4.33
2017-10-13T15:24:14.644Z,4.20
2017-10-13T15:26:42.427Z,3.37
2017-10-13T15:29:15.979Z,3.60
2017-10-13T15:31:50.270Z,3.60
2017-10-13T15:34:36.800Z,4.00
2017-10-13T15:37:05.556Z,4.00
2017-10-13T15:39:38.896Z,3.47
2017-10-13T15:42:12.267Z,3.00
2017-10-13T15:44:40.932Z,5.60
2017-10-13T15:47:14.377Z,3.90
2017-10-13T15:49:47.964Z,4.17
2017-10-13T15:52:21.355Z,3.70
2017-10-13T15:54:49.970Z,3.77
2017-10-13T15:57:17.769Z,3.60
2017-10-13T15:59:45.606Z,5.33
2017-10-13T16:02:13.383Z,4.33
2017-10-13T16:04:42.804Z,5.43
2017-10-13T16:07:10.625Z,3.47
2017-10-13T16:09:38.496Z,4.67
2017-10-13T16:12:07.159Z,4.60
2017-10-13T16:14:35.736Z,4.00
2017-10-13T16:17:04.331Z,4.80
2017-10-13T16:19:32.915Z,4.37
2017-10-13T16:22:01.492Z,4.77
2017-10-13T16:24:30.122Z,4.13
2017-10-13T16:26:58.085Z,4.13
2017-10-13T16:29:25.906Z,3.90
2017-10-13T16:31:54.468Z,4.83
2017-10-13T16:34:22.263Z,4.50
2017-10-13T16:36:50.908Z,3.90
2017-10-13T16:39:18.776Z,3.63
2017-10-13T16:41:46.588Z,3.13
2017-10-13T16:44:14.447Z,4.00
2017-10-13T16:46:42.281Z,4.00
2017-10-13T16:49:10.067Z,4.10
2017-10-13T16:51:38.751Z,4.07
2017-10-13T16:54:07.352Z,4.77
2017-10-13T16:56:35.475Z,3.80
2017-10-13T16:59:03.265Z,3.90
2017-10-13T17:01:32.318Z,4.63
2017-10-13T17:04:00.234Z,3.97
2017-10-13T17:06:28.877Z,4.00
2017-10-13T17:08:56.692Z,4.47
2017-10-13T17:11:25.532Z,4.50
2017-10-13T17:13:53.434Z,4.17
2017-10-13T17:16:22.030Z,4.00
2017-10-13T17:18:50.723Z,4.73
2017-10-13T17:21:18.553Z,4.80
2017-10-13T17:23:46.346Z,3.70
2017-10-13T17:26:15.105Z,4.13
2017-10-13T17:28:42.933Z,4.87
2017-10-13T17:31:10.972Z,4.80
2017-10-13T17:33:38.757Z,5.97
2017-10-13T17:36:06.658Z,6.00
2017-10-13T17:38:34.520Z,5.00
2017-10-13T17:41:02.397Z,4.23
2017-10-13T17:43:30.224Z,5.80
2017-10-13T17:45:58.017Z,5.10
2017-10-13T17:48:25.821Z,4.90
2017-10-13T17:50:54.413Z,4.80
2017-10-13T17:53:23.013Z,5.23
2017-10-13T17:55:50.915Z,4.70
2017-10-13T17:58:18.703Z,5.43
2017-10-13T18:00:46.501Z,5.40
2017-10-13T18:03:14.369Z,4.90
2017-10-13T18:05:42.292Z,5.40
2017-10-13T18:08:10.229Z,4.20
2017-10-13T18:10:38.068Z,5.30
2017-10-13T18:13:06.111Z,4.87
2017-10-13T18:15:34.684Z,5.60
2017-10-13T18:18:02.555Z,6.30
2017-10-13T18:20:30.399Z,9.20
2017-10-13T18:23:00.681Z,17.80
2017-10-13T18:25:29.757Z,14.80
2017-10-13T18:27:57.587Z,13.80
2017-10-13T18:30:25.368Z,14.93
2017-10-13T18:32:53.188Z,10.43
2017-10-13T18:35:20.972Z,9.10
2017-10-13T18:37:49.569Z,7.37
2017-10-13T18:40:17.363Z,6.27
2017-10-13T18:42:45.928Z,7.07
2017-10-13T18:45:13.720Z,7.43
2017-10-13T18:47:42.511Z,6.50
2017-10-13T18:50:10.306Z,6.50
2017-10-13T18:52:38.959Z,5.93
2017-10-13T18:55:06.801Z,6.20
2017-10-13T18:57:34.720Z,6.80
2017-10-13T19:00:02.586Z,6.07
2017-10-13T19:02:30.661Z,6.00
2017-10-13T19:04:58.444Z,6.47
2017-10-13T19:07:26.513Z,5.80
2017-10-13T19:09:54.339Z,6.90
2017-10-13T19:12:22.337Z,7.37
2017-10-13T19:14:50.888Z,7.23
2017-10-13T19:17:18.852Z,7.10
2017-10-13T19:19:47.278Z,8.83
2017-10-13T19:22:15.076Z,8.10
2017-10-13T19:24:43.683Z,7.70
2017-10-13T19:27:11.539Z,5.80
2017-10-13T19:29:41.905Z,6.40
2017-10-13T19:32:09.962Z,7.17
2017-10-13T19:34:42.669Z,8.93
2017-10-13T19:37:10.500Z,7.67
2017-10-13T19:39:38.597Z,8.03
2017-10-13T19:42:08.100Z,8.43
2017-10-13T19:44:36.401Z,9.87
2017-10-13T19:47:06.413Z,10.07
2017-10-13T19:49:38.668Z,4.43
2017-10-13T19:52:06.908Z,6.27
2017-10-13T19:54:35.177Z,7.40
2017-10-13T19:57:03.848Z,7.20
2017-10-13T19:59:32.520Z,8.43
2017-10-13T20:02:01.188Z,14.87
2017-10-13T20:04:29.870Z,12.73
2017-10-13T20:06:57.742Z,8.87
2017-10-13T20:09:25.902Z,7.37
2017-10-13T20:11:53.740Z,7.17
2017-10-13T20:14:21.644Z,6.17
2017-10-13T20:16:49.577Z,6.33
2017-10-13T20:19:17.596Z,7.90
2017-10-13T20:21:45.592Z,7.50
2017-10-13T20:24:13.521Z,8.37
2017-10-13T20:26:56.183Z,11.20
2017-10-13T20:29:24.160Z,11.57
2017-10-13T20:32:01.092Z,20.60
2017-10-13T20:34:29.177Z,17.53
2017-10-13T20:36:57.281Z,15.60
2017-10-13T20:39:25.286Z,13.33
2017-10-13T20:41:54.691Z,9.47
2017-10-13T20:44:22.491Z,8.37
2017-10-13T20:46:51.245Z,14.20
2017-10-13T20:49:19.141Z,12.57
2017-10-13T20:51:47.828Z,11.20
2017-10-13T20:54:20.474Z,12.80
2017-10-13T20:56:48.834Z,8.30
2017-10-13T20:59:17.815Z,6.63
2017-10-13T21:04:20.535Z,5.33
2017-10-13T21:06:48.518Z,5.67
2017-10-13T21:09:16.530Z,5.97
2017-10-13T21:11:45.167Z,5.50
2017-10-13T21:14:13.299Z,5.20
2017-10-13T21:16:41.200Z,4.43
2017-10-13T21:19:09.233Z,3.57
2017-10-13T21:21:37.136Z,4.30
2017-10-13T21:24:04.985Z,3.50
2017-10-13T21:26:34.063Z,4.37
2017-10-13T21:29:01.946Z,5.10
2017-10-13T21:31:29.838Z,5.53
2017-10-13T21:33:57.677Z,4.90
2017-10-13T21:36:25.549Z,4.77
2017-10-13T21:38:54.418Z,5.07
2017-10-13T21:41:22.282Z,4.40
2017-10-13T21:43:50.820Z,7.83
2017-10-13T21:46:18.689Z,7.50
2017-10-13T21:48:47.544Z,8.30
2017-10-13T21:51:15.539Z,8.20
2017-10-13T21:53:47.469Z,5.57
2017-10-13T21:56:15.531Z,4.73
2017-10-13T21:58:43.507Z,4.60
2017-10-13T22:01:11.372Z,5.93
2017-10-13T22:03:39.303Z,5.30
2017-10-13T22:06:07.936Z,4.13
2017-10-13T22:08:35.787Z,3.40
2017-10-13T22:11:03.624Z,2.90
2017-10-13T22:13:32.242Z,2.87
2017-10-13T22:16:00.116Z,4.07
2017-10-13T22:18:27.987Z,3.93
2017-10-13T22:20:55.851Z,4.13
2017-10-13T22:23:23.701Z,3.80
2017-10-13T22:25:51.650Z,3.10
2017-10-13T22:28:20.276Z,3.40
2017-10-13T22:30:48.136Z,3.40
2017-10-13T22:33:16.038Z,2.80
2017-10-13T22:35:43.917Z,3.57
2017-10-13T22:38:12.516Z,3.87
2017-10-13T22:40:41.128Z,2.80
2017-10-13T22:43:08.983Z,3.00
2017-10-13T22:45:36.850Z,5.40
2017-10-13T22:48:04.707Z,5.83
2017-10-13T22:50:32.569Z,3.37
2017-10-13T22:53:00.458Z,3.97
2017-10-13T22:55:28.412Z,2.87
2017-10-13T22:57:56.341Z,3.87
2017-10-13T23:00:24.266Z,3.00
2017-10-13T23:02:52.211Z,3.90
2017-10-13T23:05:20.073Z,3.47
2017-10-13T23:07:48.699Z,3.70
2017-10-13T23:10:16.542Z,4.17
2017-10-13T23:12:44.582Z,4.50
2017-10-13T23:15:13.252Z,5.47
2017-10-13T23:17:41.107Z,3.87
2017-10-13T23:20:08.963Z,3.70
2017-10-13T23:22:36.836Z,4.63
2017-10-13T23:25:04.691Z,3.10
2017-10-13T23:27:32.528Z,3.70
2017-10-13T23:30:00.742Z,3.05
2017-10-13T23:32:28.604Z,3.30
2017-10-13T23:34:56.711Z,3.73
2017-10-13T23:37:24.651Z,2.60
2017-10-13T23:39:53.166Z,3.80
2017-10-13T23:42:21.216Z,3.63
2017-10-13T23:44:53.071Z,3.30
2017-10-13T23:47:20.931Z,3.57
2017-10-13T23:49:48.767Z,4.27
2017-10-13T23:52:16.635Z,4.07
2017-10-13T23:54:44.731Z,4.73
2017-10-13T23:57:12.554Z,4.93
2017-10-13T23:59:40.816Z,4.90
